WetterOnline ( https://www.wetteronline.de )

Wetter aktuell Weiden

Aktuelles Wetter: Weiden (439m)

6-stündlich | Neueste Meldungen
Ortszeit Temperatur Wetter
Di, 11.05. 8:00 15.0° C wolkig
Di, 11.05. 2:00 18.0° C bedeckt
Mo, 10.05. 20:00 24.8° C wolkig
Mo, 10.05. 14:00 27.2° C wolkenlos
Mo, 10.05. 8:00 12.5° C bewölkt
Mo, 10.05. 2:00 14.7° C wolkig
So, 09.05. 20:00 22.0° C wolkig
So, 09.05. 14:00 23.8° C wolkenlos
Ortszeit Temperatur Wetter
Di, 11.05. 13:00 24.0° C wolkig
Di, 11.05. 12:50 24.0° C wolkig
Di, 11.05. 12:40 23.1° C leicht bewölkt
Di, 11.05. 12:30 23.5° C wolkig
Di, 11.05. 12:20 23.5° C wolkig
Di, 11.05. 12:10 23.2° C wolkig
Di, 11.05. 12:00 22.1° C leicht bewölkt
Di, 11.05. 11:30 21.4° C fast wolkenlos
Di, 11.05. 11:00 20.1° C leicht bewölkt
Di, 11.05. 10:30 19.4° C fast wolkenlos
Di, 11.05. 10:00 18.3° C wolkenlos
Ortszeit Relative Feuchte Sichtweite
Di, 11.05. 8:00 73% 45 km
Di, 11.05. 2:00 61% 50 km
Mo, 10.05. 20:00 31% 65 km
Mo, 10.05. 14:00 28% 60 km
Mo, 10.05. 8:00 72% 50 km
Mo, 10.05. 2:00 64% 65 km
So, 09.05. 20:00 35% 65 km
So, 09.05. 14:00 34% 65 km
Ortszeit Relative Feuchte Sichtweite
Di, 11.05. 13:00 50% 40 km
Di, 11.05. 12:50 50% -
Di, 11.05. 12:40 49% -
Di, 11.05. 12:30 48% 40 km
Di, 11.05. 12:20 48% -
Di, 11.05. 12:10 46% -
Di, 11.05. 12:00 48% >70 km
Di, 11.05. 11:30 55% 40 km
Di, 11.05. 11:00 56% 45 km
Di, 11.05. 10:30 59% 50 km
Di, 11.05. 10:00 64% 60 km
Ortszeit Niederschlagsmenge Niederschlagsart
Di, 11.05. 8:00 0.0 l/m2 in 12 Std. -
Di, 11.05. 2:00 0.0 l/m2 in 6 Std. -
Mo, 10.05. 20:00 0.0 l/m2 in 12 Std. -
Mo, 10.05. 14:00 0.0 l/m2 in 6 Std. -
Mo, 10.05. 8:00 0.0 l/m2 in 12 Std. -
Mo, 10.05. 2:00 0.0 l/m2 in 6 Std. -
So, 09.05. 20:00 0.0 l/m2 in 12 Std. -
So, 09.05. 14:00 0.1 l/m2 in 6 Std. -
Ortszeit Niederschlagsmenge Niederschlagsart
Di, 11.05. 13:00 0.0 l/m2 in 1 Std. -
Di, 11.05. 12:50 keine Meldung -
Di, 11.05. 12:40 keine Meldung -
Di, 11.05. 12:30 0.0 l/m2 in 1 Std. -
Di, 11.05. 12:20 keine Meldung -
Di, 11.05. 12:10 keine Meldung -
Di, 11.05. 12:00 0.0 l/m2 in 1 Std. -
Di, 11.05. 11:30 0.0 l/m2 in 1 Std. -
Di, 11.05. 11:00 0.0 l/m2 in 1 Std. -
Di, 11.05. 10:30 0.0 l/m2 in 1 Std. -
Di, 11.05. 10:00 0.0 l/m2 in 1 Std. -
Ortszeit Stärke Spitze Richtung
km/h Bft. km/h Grad Sektor
Di, 11.05. 8:00 4 1 14 250° W
Di, 11.05. 2:00 9 2 20 100° O
Mo, 10.05. 20:00 4 1 29 110° O
Mo, 10.05. 14:00 9 2 28 210° SW
Mo, 10.05. 8:00 4 1 11 320° NW
Mo, 10.05. 2:00 4 1 29 230° SW
So, 09.05. 20:00 7 2 32 110° O
So, 09.05. 14:00 11 2 32 180° S
Ortszeit Stärke Spitze Richtung
km/h Bft. km/h Grad Sektor
Di, 11.05. 13:00 11 2 22 230° SW
Di, 11.05. 12:50 11 2 - 230° SW
Di, 11.05. 12:40 11 2 - 240° SW
Di, 11.05. 12:30 7 2 14 210° SW
Di, 11.05. 12:20 7 2 - 210° SW
Di, 11.05. 12:10 6 1 - 240° SW
Di, 11.05. 12:00 7 2 18 160° S
Di, 11.05. 11:30 7 2 18 270° W
Di, 11.05. 11:00 9 2 17 270° W
Di, 11.05. 10:30 11 2 18 280° W
Di, 11.05. 10:00 7 2 11 290° W
Ortszeit Untergrenze Bedeckung Gattung
total tief tief mittel hoch
Di, 11.05. 8:00 7800 m 8/8 0/8 - - -
Di, 11.05. 2:00 3000 m 8/8 8/8 - - -
Mo, 10.05. 20:00 7800 m 7/8 0/8 - - -
Mo, 10.05. 14:00 - 0/8 0/8 - - -
Mo, 10.05. 8:00 5100 m 7/8 6/8 - - -
Mo, 10.05. 2:00 7800 m 8/8 0/8 - - -
So, 09.05. 20:00 8400 m 8/8 0/8 - - -
So, 09.05. 14:00 - 0/8 0/8 - - -
Ortszeit Bedeckungsgrad in Achtel und Wolkenuntergrenze
Di, 11.05. 13:00 5(4800m) 6(7800m) 7(8400m)
Di, 11.05. 12:50 5(4800m) 6(7800m) 7(8400m)
Di, 11.05. 12:40 3(5100m) 5(8100m)
Di, 11.05. 12:30 6(5400m) 6(7500m)
Di, 11.05. 12:20 6(5400m) 6(7500m)
Di, 11.05. 12:10 5(5400m) 7(7200m)
Di, 11.05. 12:00 5(7200m) 6(8100m) 6(7800m)
Di, 11.05. 11:30 2(7200m)
Di, 11.05. 11:00 6(7800m) 7(7800m)
Di, 11.05. 10:30 2(7800m)
Di, 11.05. 10:00 keine Wolken
Ortszeit Luftdruck NN (hPa) Tendenz (hPa in 3 Std.)
Di, 11.05. 8:00 1006 0,0
Di, 11.05. 2:00 1006 - 1,3
Mo, 10.05. 20:00 1006 - 0,3
Mo, 10.05. 14:00 1006 - 0,3
Mo, 10.05. 8:00 1009 + 0,8
Mo, 10.05. 2:00 1007 - 0,3
So, 09.05. 20:00 1007 - 1,5
So, 09.05. 14:00 1010 - 1,8
Ortszeit Luftdruck NN (hPa) Tendenz (hPa in 3 Std.)
Di, 11.05. 13:00 1003 - 1,0
Di, 11.05. 12:50 1003 keine Meldung
Di, 11.05. 12:40 1003 keine Meldung
Di, 11.05. 12:30 1003 - 1,1
Di, 11.05. 12:20 1003 keine Meldung
Di, 11.05. 12:10 1003 keine Meldung
Di, 11.05. 12:00 1003 - 1,3
Di, 11.05. 11:30 1004 - 1,3
Di, 11.05. 11:00 1004 - 0,6
Di, 11.05. 10:30 1004 - 0,7
Di, 11.05. 10:00 1005 - 0,3
Ortszeit Schneehöhe (cm)
Di, 11.05. 8:00 0
Di, 11.05. 2:00 0
Mo, 10.05. 20:00 0
Mo, 10.05. 14:00 0
Mo, 10.05. 8:00 0
Mo, 10.05. 2:00 0
So, 09.05. 20:00 0
So, 09.05. 14:00 0
Ortszeit Schneehöhe (cm)
Di, 11.05. 13:00 0
Di, 11.05. 12:50 0
Di, 11.05. 12:40 0
Di, 11.05. 12:30 0
Di, 11.05. 12:20 0
Di, 11.05. 12:10 0
Di, 11.05. 12:00 0
Di, 11.05. 11:30 0
Di, 11.05. 11:00 0
Di, 11.05. 10:30 0
Di, 11.05. 10:00 0
Link zu dieser Seite / Seite empfehlen

Das Wetter in ...